Time;durP1;ratioP1;P1;durP2;ratioP2;P2;SDS_P1;SDS_P2;PMS_P1;PMS_P2;Temp;Humidity;BMP_temperature;BMP_pressure;BME280_temperature;BME280_humidity;BME280_pressure;Samples;Min_cycle;Max_cycle;Signal;HPM_P1;HPM_P2
2023/09/13 00:03:48;;;;;;;8.65;6.35;;;;;;;;;;10398314;28;20022;-49
2023/09/13 00:08:49;;;;;;;7.38;6.13;;;;;;;;;;10385873;28;20195;-50
2023/09/13 00:13:49;;;;;;;9.68;6.80;;;;;;;;;;10396319;28;20034;-49
2023/09/13 00:18:51;;;;;;;11.45;6.72;;;;;;;;;;10383703;28;20080;-49
2023/09/13 00:23:51;;;;;;;8.70;6.07;;;;;;;;;;10395663;28;20406;-49
2023/09/13 00:28:52;;;;;;;7.63;5.82;;;;;;;;;;10383295;28;20029;-49
2023/09/13 00:33:53;;;;;;;7.80;6.05;;;;;;;;;;10387397;28;20263;-49
2023/09/13 00:38:53;;;;;;;6.93;6.22;;;;;;;;;;10396055;28;20026;-50
2023/09/13 00:43:55;;;;;;;9.63;6.13;;;;;;;;;;10388091;28;20397;-49
2023/09/13 00:48:57;;;;;;;7.20;6.50;;;;;;;;;;10388145;28;20514;-50
2023/09/13 00:53:58;;;;;;;10.23;6.57;;;;;;;;;;10399593;28;20018;-49
2023/09/13 00:58:59;;;;;;;11.13;6.82;;;;;;;;;;10391108;28;20021;-49
2023/09/13 01:03:59;;;;;;;7.25;6.20;;;;;;;;;;10373487;28;20017;-50
2023/09/13 01:09:03;;;;;;;9.63;6.32;;;;;;;;;;10390558;28;20022;-49
2023/09/13 01:14:04;;;;;;;7.80;6.55;;;;;;;;;;10371305;28;20025;-49
2023/09/13 01:19:32;;;;;;;7.85;6.50;;;;;;;;;;10380101;28;20030;-50
2023/09/13 01:24:57;;;;;;;9.55;6.35;;;;;;;;;;10393567;28;20014;-52
2023/09/13 01:30:00;;;;;;;7.75;6.05;;;;;;;;;;10398716;28;20453;-49
2023/09/13 01:35:01;;;;;;;8.18;6.72;;;;;;;;;;10370196;28;20255;-54
2023/09/13 01:40:06;;;;;;;8.05;6.60;;;;;;;;;;10391174;28;20903;-50
2023/09/13 01:45:11;;;;;;;13.77;7.03;;;;;;;;;;10393460;28;20044;-48
2023/09/13 01:50:13;;;;;;;9.23;7.15;;;;;;;;;;10376544;28;20163;-50
2023/09/13 01:55:14;;;;;;;7.10;6.38;;;;;;;;;;10388545;28;20425;-50
2023/09/13 02:00:15;;;;;;;8.85;6.75;;;;;;;;;;10376872;28;20033;-49
2023/09/13 02:05:15;;;;;;;9.95;6.97;;;;;;;;;;10369807;28;20056;-48
2023/09/13 02:10:16;;;;;;;8.70;7.10;;;;;;;;;;10368525;28;20021;-50
2023/09/13 02:15:16;;;;;;;7.97;6.75;;;;;;;;;;10381175;28;20034;-49
2023/09/13 02:20:17;;;;;;;11.50;6.68;;;;;;;;;;10369219;28;20026;-51
2023/09/13 02:25:18;;;;;;;7.65;6.65;;;;;;;;;;10380060;28;20021;-49
2023/09/13 02:30:18;;;;;;;8.23;6.85;;;;;;;;;;10368313;28;20037;-50
2023/09/13 02:35:19;;;;;;;8.05;6.93;;;;;;;;;;10377116;28;20436;-51
2023/09/13 02:40:20;;;;;;;6.60;6.00;;;;;;;;;;10392815;28;20022;-48
2023/09/13 02:45:20;;;;;;;9.85;6.65;;;;;;;;;;10374842;28;20041;-49
2023/09/13 02:50:21;;;;;;;8.73;7.13;;;;;;;;;;10368812;28;20029;-52
2023/09/13 02:55:21;;;;;;;7.78;6.97;;;;;;;;;;10374722;28;20033;-50
2023/09/13 03:00:22;;;;;;;8.52;7.05;;;;;;;;;;10368106;28;20030;-48
2023/09/13 03:05:23;;;;;;;7.55;6.47;;;;;;;;;;10370360;28;20030;-49
2023/09/13 03:10:26;;;;;;;8.15;6.53;;;;;;;;;;10382460;28;20022;-49
2023/09/13 03:15:32;;;;;;;7.22;6.18;;;;;;;;;;10385180;28;20026;-49
2023/09/13 03:20:39;;;;;;;7.10;6.40;;;;;;;;;;10392150;28;20160;-48
2023/09/13 03:25:40;;;;;;;7.73;6.23;;;;;;;;;;10386162;28;20026;-49
2023/09/13 03:30:40;;;;;;;7.25;6.55;;;;;;;;;;10386459;28;20018;-50
2023/09/13 03:35:41;;;;;;;7.43;6.60;;;;;;;;;;10385650;28;20488;-51
2023/09/13 03:40:41;;;;;;;8.77;6.78;;;;;;;;;;10376341;28;20024;-49
2023/09/13 03:45:42;;;;;;;7.05;6.35;;;;;;;;;;10397288;28;20041;-48
2023/09/13 03:50:43;;;;;;;8.48;6.82;;;;;;;;;;10382419;28;20486;-52
2023/09/13 03:55:43;;;;;;;7.38;6.63;;;;;;;;;;10373365;28;20029;-49
2023/09/13 04:00:44;;;;;;;7.13;6.15;;;;;;;;;;10376576;28;20032;-49
2023/09/13 04:05:45;;;;;;;7.55;6.82;;;;;;;;;;10373515;28;20106;-49
2023/09/13 04:10:45;;;;;;;7.78;6.35;;;;;;;;;;10371578;28;20077;-48
2023/09/13 04:15:46;;;;;;;7.10;6.40;;;;;;;;;;10371668;28;20032;-50
2023/09/13 04:20:47;;;;;;;7.07;6.38;;;;;;;;;;10380479;28;20036;-49
2023/09/13 04:25:47;;;;;;;8.13;6.63;;;;;;;;;;10376991;28;20271;-51
2023/09/13 04:30:48;;;;;;;7.10;6.40;;;;;;;;;;10371281;28;20022;-50
2023/09/13 04:35:48;;;;;;;8.77;6.55;;;;;;;;;;10371596;28;20018;-51
2023/09/13 04:40:49;;;;;;;7.57;6.00;;;;;;;;;;10387489;28;20433;-48
2023/09/13 04:45:49;;;;;;;7.73;6.40;;;;;;;;;;10384283;28;20069;-48
2023/09/13 04:50:50;;;;;;;7.10;6.40;;;;;;;;;;10383040;28;20025;-48
2023/09/13 04:55:51;;;;;;;7.72;6.63;;;;;;;;;;10370812;28;20036;-49
2023/09/13 05:00:52;;;;;;;6.68;5.97;;;;;;;;;;10375041;28;20033;-49
2023/09/13 05:05:55;;;;;;;7.68;6.03;;;;;;;;;;10379830;28;20095;-50
2023/09/13 05:10:56;;;;;;;7.38;6.57;;;;;;;;;;10382551;28;20060;-48
2023/09/13 05:15:56;;;;;;;6.97;6.05;;;;;;;;;;10370469;28;20025;-49
2023/09/13 05:20:57;;;;;;;7.22;6.40;;;;;;;;;;10379910;28;20034;-56
2023/09/13 05:25:58;;;;;;;8.43;7.53;;;;;;;;;;10369715;28;20025;-48
2023/09/13 05:30:59;;;;;;;7.95;7.05;;;;;;;;;;10369235;28;20029;-49
2023/09/13 05:36:00;;;;;;;15.68;8.45;;;;;;;;;;10369445;28;20022;-49
2023/09/13 05:41:07;;;;;;;12.05;8.07;;;;;;;;;;10374898;28;20024;-55
2023/09/13 05:46:09;;;;;;;9.80;7.77;;;;;;;;;;10380373;28;20038;-49
2023/09/13 05:51:09;;;;;;;11.85;8.30;;;;;;;;;;10393575;28;20030;-53
2023/09/13 05:56:12;;;;;;;11.02;9.20;;;;;;;;;;10386980;28;20041;-52
2023/09/13 06:01:12;;;;;;;10.70;8.88;;;;;;;;;;10387665;28;20112;-48
2023/09/13 06:06:13;;;;;;;12.20;8.70;;;;;;;;;;10411269;28;20501;-49
2023/09/13 06:11:15;;;;;;;18.48;9.50;;;;;;;;;;10399253;28;20260;-49
2023/09/13 06:16:15;;;;;;;13.63;9.65;;;;;;;;;;10382932;28;20037;-50
2023/09/13 06:21:16;;;;;;;11.20;7.95;;;;;;;;;;10385880;28;20060;-49
2023/09/13 06:26:17;;;;;;;8.52;7.57;;;;;;;;;;10402230;28;20044;-49
2023/09/13 06:31:17;;;;;;;9.73;7.68;;;;;;;;;;10404869;28;20092;-50
2023/09/13 06:36:18;;;;;;;11.45;7.95;;;;;;;;;;10403976;28;20025;-49
2023/09/13 06:41:19;;;;;;;15.00;8.95;;;;;;;;;;10409368;28;20029;-53
2023/09/13 06:46:20;;;;;;;16.10;8.57;;;;;;;;;;10411757;28;20051;-49
2023/09/13 06:51:20;;;;;;;18.58;8.65;;;;;;;;;;10411593;28;20129;-51
2023/09/13 06:56:21;;;;;;;12.48;8.77;;;;;;;;;;10411975;28;20055;-51
2023/09/13 07:01:21;;;;;;;10.02;8.10;;;;;;;;;;10385876;28;20107;-48
2023/09/13 07:06:22;;;;;;;15.93;8.93;;;;;;;;;;10387084;28;20033;-50
2023/09/13 07:11:23;;;;;;;12.27;8.73;;;;;;;;;;10375220;28;20165;-49
2023/09/13 07:16:24;;;;;;;12.40;7.75;;;;;;;;;;10386488;28;20041;-50
2023/09/13 07:21:24;;;;;;;13.35;8.95;;;;;;;;;;10372774;28;20069;-50
2023/09/13 07:26:25;;;;;;;10.85;8.07;;;;;;;;;;10386505;28;20032;-56
2023/09/13 07:31:25;;;;;;;14.85;8.30;;;;;;;;;;10384295;28;20073;-59
2023/09/13 07:36:27;;;;;;;11.30;7.90;;;;;;;;;;10374531;28;20022;-50
2023/09/13 07:41:28;;;;;;;8.63;7.63;;;;;;;;;;10383526;28;20029;-49
2023/09/13 07:46:29;;;;;;;10.73;7.82;;;;;;;;;;10393871;28;20548;-52
2023/09/13 07:51:30;;;;;;;9.45;7.55;;;;;;;;;;10372283;28;20041;-55
2023/09/13 07:56:33;;;;;;;8.13;7.13;;;;;;;;;;10372901;28;20437;-55
2023/09/13 08:01:33;;;;;;;9.43;7.40;;;;;;;;;;10393092;28;20091;-49
2023/09/13 08:06:34;;;;;;;8.95;6.70;;;;;;;;;;10393525;28;20088;-54
2023/09/13 08:11:35;;;;;;;9.00;7.32;;;;;;;;;;10373990;28;20057;-50
2023/09/13 08:16:36;;;;;;;11.00;7.55;;;;;;;;;;10373296;28;20065;-61
2023/09/13 08:21:37;;;;;;;11.75;7.30;;;;;;;;;;10385090;28;20029;-49
2023/09/13 08:26:38;;;;;;;10.10;7.85;;;;;;;;;;10384263;28;20057;-49
2023/09/13 08:31:39;;;;;;;13.35;7.68;;;;;;;;;;10384366;28;20021;-51
2023/09/13 08:36:39;;;;;;;11.82;7.57;;;;;;;;;;10382624;28;20033;-57
2023/09/13 08:41:43;;;;;;;12.82;7.45;;;;;;;;;;10395309;28;20021;-49
2023/09/13 08:46:45;;;;;;;11.85;8.05;;;;;;;;;;10390141;28;20049;-49
2023/09/13 08:51:48;;;;;;;10.23;7.10;;;;;;;;;;10383177;28;20030;-52
2023/09/13 08:56:48;;;;;;;16.77;7.20;;;;;;;;;;10371335;28;20068;-49
2023/09/13 09:01:53;;;;;;;11.30;7.35;;;;;;;;;;10372283;28;20030;-51
2023/09/13 09:06:54;;;;;;;9.95;8.27;;;;;;;;;;10370986;28;20029;-57
2023/09/13 09:12:00;;;;;;;11.88;7.97;;;;;;;;;;10373699;28;20045;-54
2023/09/13 09:17:02;;;;;;;10.18;8.02;;;;;;;;;;10380985;28;20470;-49
2023/09/13 09:22:03;;;;;;;15.80;8.82;;;;;;;;;;10378262;28;20022;-50
2023/09/13 09:27:03;;;;;;;12.65;8.05;;;;;;;;;;10368512;28;20033;-53
2023/09/13 09:32:08;;;;;;;10.07;8.00;;;;;;;;;;10403149;28;20104;-49
2023/09/13 09:37:09;;;;;;;11.63;9.43;;;;;;;;;;10381567;28;20029;-53
2023/09/13 09:42:16;;;;;;;12.13;9.02;;;;;;;;;;10383743;28;20428;-48
2023/09/13 09:47:18;;;;;;;12.02;8.60;;;;;;;;;;10386555;28;20052;-50
2023/09/13 09:52:18;;;;;;;12.35;8.65;;;;;;;;;;10381552;28;20485;-49
2023/09/13 09:57:26;;;;;;;12.88;8.98;;;;;;;;;;10376777;28;20113;-49
2023/09/13 10:02:27;;;;;;;14.70;8.53;;;;;;;;;;10402167;28;20037;-52
2023/09/13 10:07:27;;;;;;;10.82;8.25;;;;;;;;;;10393036;28;20030;-49
2023/09/13 10:12:44;;;;;;;10.02;7.82;;;;;;;;;;10382531;28;20030;-52
2023/09/13 10:17:47;;;;;;;11.70;8.80;;;;;;;;;;10411887;28;20098;-49
2023/09/13 10:22:49;;;;;;;10.20;8.82;;;;;;;;;;10388767;28;20113;-51
2023/09/13 10:27:54;;;;;;;12.85;9.35;;;;;;;;;;10400584;28;20041;-54
2023/09/13 10:32:58;;;;;;;13.68;9.10;;;;;;;;;;10388740;28;20045;-49
2023/09/13 10:38:08;;;;;;;11.70;8.88;;;;;;;;;;10375819;28;20022;-49
2023/09/13 10:43:09;;;;;;;11.13;8.38;;;;;;;;;;10392068;28;20029;-50
2023/09/13 10:48:10;;;;;;;9.05;8.05;;;;;;;;;;10387223;28;20057;-50
2023/09/13 10:53:14;;;;;;;12.52;8.70;;;;;;;;;;10397899;28;20137;-48
2023/09/13 10:58:20;;;;;;;10.88;8.05;;;;;;;;;;10391919;28;20017;-49
2023/09/13 11:03:22;;;;;;;10.45;8.65;;;;;;;;;;10394799;28;20118;-57
2023/09/13 11:08:31;;;;;;;9.63;7.95;;;;;;;;;;10375666;28;20088;-50
2023/09/13 11:13:32;;;;;;;8.43;7.53;;;;;;;;;;10374420;28;20382;-49
2023/09/13 11:18:32;;;;;;;8.75;7.90;;;;;;;;;;10386254;28;20022;-49
2023/09/13 11:23:43;;;;;;;8.75;7.78;;;;;;;;;;10373853;28;20485;-49
2023/09/13 11:28:46;;;;;;;8.95;7.30;;;;;;;;;;10386433;28;20029;-50
2023/09/13 11:33:57;;;;;;;14.77;8.65;;;;;;;;;;10373354;28;20473;-50
2023/09/13 11:39:00;;;;;;;9.52;7.63;;;;;;;;;;10385962;28;20442;-52
2023/09/13 11:44:03;;;;;;;8.82;7.93;;;;;;;;;;10382526;28;20045;-49
2023/09/13 11:49:05;;;;;;;9.13;8.20;;;;;;;;;;10383377;28;20033;-49
2023/09/13 11:54:15;;;;;;;9.48;7.65;;;;;;;;;;10380012;28;20026;-50
2023/09/13 11:59:17;;;;;;;10.65;7.68;;;;;;;;;;10382268;28;20037;-55
2023/09/13 12:04:22;;;;;;;8.50;7.53;;;;;;;;;;10372511;28;20033;-55
2023/09/13 12:09:23;;;;;;;8.98;7.40;;;;;;;;;;10385594;28;20402;-59
2023/09/13 12:14:25;;;;;;;10.05;7.43;;;;;;;;;;10384623;28;20125;-54
2023/09/13 12:19:26;;;;;;;12.15;8.05;;;;;;;;;;10372315;28;20033;-58
2023/09/13 12:24:27;;;;;;;9.80;8.27;;;;;;;;;;10376659;28;20037;-56
2023/09/13 12:29:27;;;;;;;8.73;7.80;;;;;;;;;;10371447;28;20034;-56
2023/09/13 12:34:28;;;;;;;9.10;7.05;;;;;;;;;;10373012;28;20030;-55
2023/09/13 12:39:29;;;;;;;7.97;7.18;;;;;;;;;;10383601;28;20040;-53
2023/09/13 12:44:29;;;;;;;8.80;6.90;;;;;;;;;;10373988;28;20045;-55
2023/09/13 12:49:30;;;;;;;8.95;7.25;;;;;;;;;;10382440;28;20393;-55
2023/09/13 12:54:35;;;;;;;7.68;6.88;;;;;;;;;;10379708;28;20033;-53
2023/09/13 12:59:46;;;;;;;7.70;6.90;;;;;;;;;;10374745;28;20029;-54
2023/09/13 13:04:47;;;;;;;8.18;7.03;;;;;;;;;;10393426;28;20061;-55
2023/09/13 13:10:04;;;;;;;7.63;6.82;;;;;;;;;;10404392;28;20125;-61
2023/09/13 13:15:05;;;;;;;7.05;6.45;;;;;;;;;;10395544;28;20137;-60
2023/09/13 13:20:07;;;;;;;10.73;6.85;;;;;;;;;;10387098;28;20033;-52
2023/09/13 13:25:09;;;;;;;7.43;6.72;;;;;;;;;;10392764;28;20108;-53
2023/09/13 13:30:10;;;;;;;8.20;6.60;;;;;;;;;;10381518;28;20034;-54
2023/09/13 13:35:11;;;;;;;7.75;7.00;;;;;;;;;;10377387;28;20040;-53
2023/09/13 13:40:11;;;;;;;7.47;6.40;;;;;;;;;;10379799;28;20390;-58
2023/09/13 13:45:12;;;;;;;6.82;6.22;;;;;;;;;;10402668;28;20527;-52
2023/09/13 13:50:12;;;;;;;7.07;6.38;;;;;;;;;;10371247;28;20410;-56
2023/09/13 13:55:13;;;;;;;9.02;6.32;;;;;;;;;;10379511;28;20025;-53
2023/09/13 14:00:15;;;;;;;8.30;6.38;;;;;;;;;;10378190;28;20022;-55
2023/09/13 14:05:15;;;;;;;6.97;6.28;;;;;;;;;;10368142;28;20381;-58
2023/09/13 14:10:16;;;;;;;7.25;6.55;;;;;;;;;;10373461;28;20026;-61
2023/09/13 14:15:20;;;;;;;7.53;6.82;;;;;;;;;;10389622;28;20079;-54
2023/09/13 14:20:20;;;;;;;6.85;6.15;;;;;;;;;;10388787;28;20033;-60
2023/09/13 14:25:22;;;;;;;6.72;6.07;;;;;;;;;;10398834;28;20032;-52
2023/09/13 14:30:23;;;;;;;7.20;6.50;;;;;;;;;;10383903;28;20394;-55
2023/09/13 14:35:24;;;;;;;6.80;6.10;;;;;;;;;;10380745;28;20030;-55
2023/09/13 14:40:27;;;;;;;7.47;5.72;;;;;;;;;;10391594;28;20042;-51
2023/09/13 14:45:27;;;;;;;7.20;6.22;;;;;;;;;;10393318;28;20393;-52
2023/09/13 14:50:28;;;;;;;7.10;5.75;;;;;;;;;;10380497;28;20037;-51
2023/09/13 14:55:28;;;;;;;6.90;6.20;;;;;;;;;;10404960;28;20026;-51
2023/09/13 15:00:29;;;;;;;6.72;5.43;;;;;;;;;;10388980;28;20038;-50
2023/09/13 15:05:29;;;;;;;10.32;5.95;;;;;;;;;;10399935;28;20026;-53
2023/09/13 15:10:31;;;;;;;7.25;6.20;;;;;;;;;;10399964;28;20072;-50
2023/09/13 15:15:32;;;;;;;6.45;5.82;;;;;;;;;;10404774;28;20083;-51
2023/09/13 15:20:33;;;;;;;6.28;5.68;;;;;;;;;;10422868;28;20378;-54
2023/09/13 15:25:34;;;;;;;7.10;6.07;;;;;;;;;;10409258;28;20147;-51
2023/09/13 15:30:35;;;;;;;7.70;5.38;;;;;;;;;;10403295;28;20472;-52
2023/09/13 15:35:36;;;;;;;6.18;5.57;;;;;;;;;;10410694;28;20025;-52
2023/09/13 15:40:36;;;;;;;6.38;5.78;;;;;;;;;;10396657;28;20037;-51
2023/09/13 15:45:37;;;;;;;6.43;5.82;;;;;;;;;;10393629;28;20096;-52
2023/09/13 15:50:38;;;;;;;6.03;5.35;;;;;;;;;;10405614;28;20030;-53
2023/09/13 15:55:38;;;;;;;7.20;5.82;;;;;;;;;;10403892;28;20029;-52
2023/09/13 16:00:40;;;;;;;6.88;5.43;;;;;;;;;;10395616;28;20033;-51
2023/09/13 16:05:44;;;;;;;6.28;5.40;;;;;;;;;;10374378;28;20076;-52
2023/09/13 16:10:44;;;;;;;5.82;5.30;;;;;;;;;;10383436;28;20022;-52
2023/09/13 16:15:45;;;;;;;7.65;5.80;;;;;;;;;;10370968;28;20481;-52
2023/09/13 16:20:45;;;;;;;6.18;5.55;;;;;;;;;;10372579;28;20512;-56
2023/09/13 16:25:46;;;;;;;6.13;5.53;;;;;;;;;;10372071;28;20097;-52
2023/09/13 16:30:47;;;;;;;7.32;5.20;;;;;;;;;;10372411;28;20037;-54
2023/09/13 16:35:47;;;;;;;6.18;5.57;;;;;;;;;;10371525;28;20029;-50
2023/09/13 16:40:48;;;;;;;5.18;4.68;;;;;;;;;;10371864;28;20029;-53
2023/09/13 16:45:48;;;;;;;5.72;5.20;;;;;;;;;;10376358;28;20517;-50
2023/09/13 16:50:49;;;;;;;5.97;5.15;;;;;;;;;;10372054;28;20042;-51
2023/09/13 16:55:49;;;;;;;6.63;5.30;;;;;;;;;;10373362;28;20029;-51
2023/09/13 17:00:55;;;;;;;6.32;5.63;;;;;;;;;;10388827;28;20033;-52
2023/09/13 17:05:56;;;;;;;5.78;5.20;;;;;;;;;;10370463;28;20062;-52
2023/09/13 17:10:56;;;;;;;7.38;5.65;;;;;;;;;;10382983;28;20381;-53
2023/09/13 17:15:57;;;;;;;5.82;5.18;;;;;;;;;;10370032;28;20038;-53
2023/09/13 17:20:57;;;;;;;6.07;5.47;;;;;;;;;;10370852;28;20030;-50
2023/09/13 17:25:58;;;;;;;6.30;5.65;;;;;;;;;;10369717;28;20037;-49
2023/09/13 17:30:59;;;;;;;5.25;4.75;;;;;;;;;;10369401;28;20497;-52
2023/09/13 17:36:00;;;;;;;5.20;4.80;;;;;;;;;;10370503;28;20030;-58
2023/09/13 17:41:00;;;;;;;5.03;4.63;;;;;;;;;;10379762;28;20037;-50
2023/09/13 17:46:01;;;;;;;5.70;5.18;;;;;;;;;;10397340;28;20041;-56
2023/09/13 17:51:02;;;;;;;5.82;5.32;;;;;;;;;;10403997;28;20179;-53
2023/09/13 17:56:05;;;;;;;5.68;5.18;;;;;;;;;;10405578;28;20029;-52
2023/09/13 18:01:06;;;;;;;5.43;4.93;;;;;;;;;;10384337;28;20057;-49
2023/09/13 18:06:06;;;;;;;5.32;4.82;;;;;;;;;;10393323;28;20048;-58
2023/09/13 18:11:07;;;;;;;5.20;4.70;;;;;;;;;;10396296;28;20037;-51
2023/09/13 18:16:08;;;;;;;5.43;4.88;;;;;;;;;;10402830;28;20034;-49
2023/09/13 18:21:08;;;;;;;5.43;4.93;;;;;;;;;;10384509;28;20037;-51
2023/09/13 18:26:11;;;;;;;5.20;4.78;;;;;;;;;;10402261;28;20052;-49
2023/09/13 18:31:12;;;;;;;5.15;4.68;;;;;;;;;;10402649;28;20025;-50
2023/09/13 18:36:13;;;;;;;5.15;4.70;;;;;;;;;;10400151;28;20083;-56
2023/09/13 18:41:14;;;;;;;5.95;5.15;;;;;;;;;;10411661;28;20546;-51
2023/09/13 18:46:14;;;;;;;5.45;4.95;;;;;;;;;;10401688;28;20099;-51
2023/09/13 18:51:15;;;;;;;5.30;4.80;;;;;;;;;;10402241;28;20021;-51
2023/09/13 18:56:16;;;;;;;5.38;4.90;;;;;;;;;;10388756;28;20029;-52
2023/09/13 19:01:17;;;;;;;4.88;4.47;;;;;;;;;;10378567;28;20040;-52
2023/09/13 19:06:18;;;;;;;5.30;4.80;;;;;;;;;;10410231;28;20037;-50
2023/09/13 19:11:21;;;;;;;5.22;4.72;;;;;;;;;;10402946;28;20064;-51
2023/09/13 19:16:22;;;;;;;4.80;4.40;;;;;;;;;;10390558;28;20081;-60
2023/09/13 19:21:22;;;;;;;5.03;4.55;;;;;;;;;;10390862;28;20033;-52
2023/09/13 19:26:23;;;;;;;5.07;4.65;;;;;;;;;;10384535;28;20163;-51
2023/09/13 19:31:25;;;;;;;4.88;4.47;;;;;;;;;;10396345;28;20037;-51
2023/09/13 19:36:25;;;;;;;6.30;5.10;;;;;;;;;;10410769;28;20109;-50
2023/09/13 19:41:26;;;;;;;7.38;5.68;;;;;;;;;;10409574;28;20041;-49
2023/09/13 19:46:26;;;;;;;10.32;6.30;;;;;;;;;;10407822;28;20045;-49
2023/09/13 19:51:28;;;;;;;7.00;6.30;;;;;;;;;;10405583;28;20393;-49
2023/09/13 19:56:29;;;;;;;12.02;6.38;;;;;;;;;;10408281;28;20041;-50
2023/09/13 20:01:30;;;;;;;9.73;6.47;;;;;;;;;;10392835;28;20490;-50
2023/09/13 20:06:35;;;;;;;15.10;6.85;;;;;;;;;;10372754;28;20053;-50
2023/09/13 20:11:41;;;;;;;10.50;7.07;;;;;;;;;;10382614;28;20113;-50
2023/09/13 20:16:42;;;;;;;10.82;7.03;;;;;;;;;;10384051;28;20268;-49
2023/09/13 20:21:43;;;;;;;13.90;7.15;;;;;;;;;;10372363;28;20428;-49
2023/09/13 20:26:43;;;;;;;16.70;7.63;;;;;;;;;;10377866;28;20382;-51
2023/09/13 20:31:44;;;;;;;13.57;7.35;;;;;;;;;;10372154;28;20445;-49
2023/09/13 20:36:45;;;;;;;12.40;7.32;;;;;;;;;;10372065;28;20021;-49
2023/09/13 20:41:46;;;;;;;9.80;7.35;;;;;;;;;;10392102;28;20040;-50
2023/09/13 20:46:46;;;;;;;9.05;6.90;;;;;;;;;;10378411;28;20045;-54
2023/09/13 20:51:47;;;;;;;11.50;7.13;;;;;;;;;;10381734;28;20037;-50
2023/09/13 20:56:48;;;;;;;15.13;7.55;;;;;;;;;;10371768;28;20030;-51
2023/09/13 21:01:49;;;;;;;10.77;7.35;;;;;;;;;;10376683;28;20497;-52
2023/09/13 21:06:49;;;;;;;9.40;7.55;;;;;;;;;;10371195;28;20026;-50
2023/09/13 21:11:49;;;;;;;11.17;7.47;;;;;;;;;;10372177;28;20029;-56
2023/09/13 21:16:50;;;;;;;11.93;7.32;;;;;;;;;;10373567;28;20462;-49
2023/09/13 21:21:51;;;;;;;7.78;6.97;;;;;;;;;;10395383;28;20033;-50
2023/09/13 21:26:53;;;;;;;8.82;7.28;;;;;;;;;;10386890;28;20017;-50
2023/09/13 21:31:53;;;;;;;10.13;7.22;;;;;;;;;;10401375;28;20022;-49
2023/09/13 21:36:54;;;;;;;11.35;7.78;;;;;;;;;;10390744;28;20030;-50
2023/09/13 21:41:54;;;;;;;8.80;7.15;;;;;;;;;;10398534;28;20029;-50
2023/09/13 21:46:55;;;;;;;10.48;7.13;;;;;;;;;;10391779;28;20125;-50
2023/09/13 21:51:56;;;;;;;9.77;6.78;;;;;;;;;;10402335;28;20026;-54
2023/09/13 21:56:56;;;;;;;8.15;6.70;;;;;;;;;;10404798;28;20384;-51
2023/09/13 22:01:57;;;;;;;10.02;6.57;;;;;;;;;;10373767;28;20374;-51
2023/09/13 22:06:57;;;;;;;14.30;7.25;;;;;;;;;;10372019;28;20396;-53
2023/09/13 22:11:58;;;;;;;13.75;7.18;;;;;;;;;;10376499;28;20028;-52
2023/09/13 22:16:58;;;;;;;12.25;7.05;;;;;;;;;;10377335;28;20038;-54
2023/09/13 22:21:59;;;;;;;8.85;6.75;;;;;;;;;;10379151;28;20112;-53
2023/09/13 22:27:00;;;;;;;8.25;6.70;;;;;;;;;;10368388;28;20045;-51
2023/09/13 22:32:00;;;;;;;12.73;7.55;;;;;;;;;;10377723;28;20691;-55
2023/09/13 22:37:01;;;;;;;11.05;7.20;;;;;;;;;;10377798;28;20044;-54
2023/09/13 22:42:06;;;;;;;10.77;7.00;;;;;;;;;;10371508;28;20048;-51
2023/09/13 22:47:07;;;;;;;23.67;7.20;;;;;;;;;;10379802;28;20100;-52
2023/09/13 22:52:08;;;;;;;11.23;7.53;;;;;;;;;;10377237;28;20033;-51
2023/09/13 22:57:09;;;;;;;8.00;6.68;;;;;;;;;;10379140;28;20030;-59
2023/09/13 23:02:09;;;;;;;8.70;7.10;;;;;;;;;;10378771;28;20033;-56
2023/09/13 23:07:12;;;;;;;10.40;7.35;;;;;;;;;;10374256;28;20021;-54
2023/09/13 23:12:13;;;;;;;8.88;7.20;;;;;;;;;;10382391;28;20036;-56
2023/09/13 23:17:16;;;;;;;10.02;7.95;;;;;;;;;;10385638;28;20029;-51
2023/09/13 23:22:16;;;;;;;12.52;7.57;;;;;;;;;;10379805;28;20044;-49
2023/09/13 23:27:17;;;;;;;10.63;8.30;;;;;;;;;;10387823;28;20037;-48
2023/09/13 23:32:17;;;;;;;11.57;7.90;;;;;;;;;;10389747;28;20056;-50
2023/09/13 23:37:19;;;;;;;11.15;7.63;;;;;;;;;;10397852;28;20033;-48
2023/09/13 23:42:20;;;;;;;11.55;8.07;;;;;;;;;;10386646;28;20024;-50
2023/09/13 23:47:20;;;;;;;8.65;7.53;;;;;;;;;;10395032;28;20386;-49
2023/09/13 23:52:21;;;;;;;9.18;8.02;;;;;;;;;;10384481;28;20092;-48
2023/09/13 23:57:22;;;;;;;8.57;7.63;;;;;;;;;;10384961;28;20026;-49
